createdAt,value
2022-09-28T00:00:18.547Z,100.00
2022-09-28T00:04:21.360Z,100.00
2022-09-28T00:08:23.422Z,100.00
2022-09-28T00:12:25.460Z,100.00
2022-09-28T00:16:34.301Z,100.00
2022-09-28T00:20:37.664Z,100.00
2022-09-28T00:24:39.664Z,100.00
2022-09-28T00:28:41.660Z,100.00
2022-09-28T00:32:43.700Z,100.00
2022-09-28T00:36:46.982Z,100.00
2022-09-28T00:40:49.181Z,100.00
2022-09-28T00:44:55.547Z,100.00
2022-09-28T00:49:03.176Z,100.00
2022-09-28T00:53:11.688Z,100.00
2022-09-28T00:57:14.990Z,100.00
2022-09-28T01:01:17.255Z,100.00
2022-09-28T01:05:20.773Z,100.00
2022-09-28T01:09:25.008Z,100.00
2022-09-28T01:13:28.420Z,100.00
2022-09-28T01:17:44.810Z,100.00
2022-09-28T01:21:54.062Z,100.00
2022-09-28T01:26:24.003Z,100.00
2022-09-28T01:30:26.403Z,100.00
2022-09-28T01:34:37.414Z,100.00
2022-09-28T01:38:55.744Z,100.00
2022-09-28T01:43:06.036Z,100.00
2022-09-28T01:47:12.387Z,100.00
2022-09-28T01:51:21.948Z,100.00
2022-09-28T01:55:33.670Z,100.00
2022-09-28T01:59:41.776Z,100.00
2022-09-28T02:03:48.653Z,100.00
2022-09-28T02:08:01.179Z,100.00
2022-09-28T02:12:10.038Z,100.00
2022-09-28T02:16:34.722Z,100.00
2022-09-28T02:20:41.075Z,100.00
2022-09-28T02:24:53.630Z,100.00
2022-09-28T02:28:59.641Z,100.00
2022-09-28T02:33:25.329Z,100.00
2022-09-28T02:37:28.181Z,100.00
2022-09-28T02:42:19.501Z,100.00
2022-09-28T02:46:32.746Z,100.00
2022-09-28T02:51:11.471Z,100.00
2022-09-28T02:55:28.837Z,100.00
2022-09-28T02:59:57.692Z,100.00
2022-09-28T03:04:05.665Z,100.00
2022-09-28T03:08:19.104Z,100.00
2022-09-28T03:12:24.360Z,100.00
2022-09-28T03:16:27.566Z,100.00
2022-09-28T03:20:32.226Z,100.00
2022-09-28T03:24:34.408Z,100.00
2022-09-28T03:28:37.246Z,100.00
2022-09-28T03:32:40.479Z,100.00
2022-09-28T03:36:43.155Z,100.00
2022-09-28T03:40:53.781Z,100.00
2022-09-28T03:44:56.765Z,100.00
2022-09-28T03:48:59.275Z,100.00
2022-09-28T03:53:04.538Z,100.00
2022-09-28T03:57:06.868Z,100.00
2022-09-28T04:01:16.497Z,100.00
2022-09-28T04:05:20.482Z,100.00
2022-09-28T04:09:23.112Z,100.00
2022-09-28T04:13:26.124Z,100.00
2022-09-28T04:17:28.166Z,100.00
2022-09-28T04:21:31.205Z,100.00
2022-09-28T04:25:39.618Z,100.00
2022-09-28T04:29:43.040Z,100.00
2022-09-28T04:33:45.871Z,100.00
2022-09-28T04:37:47.999Z,100.00
2022-09-28T04:41:50.407Z,100.00
2022-09-28T04:45:52.549Z,100.00
2022-09-28T04:49:56.891Z,100.00
2022-09-28T04:54:07.536Z,100.00
2022-09-28T04:58:09.511Z,100.00
2022-09-28T05:02:13.844Z,100.00
2022-09-28T05:06:35.804Z,100.00
2022-09-28T05:10:40.933Z,100.00
2022-09-28T05:14:42.935Z,100.00
2022-09-28T05:18:45.756Z,100.00
2022-09-28T05:22:47.878Z,100.00
2022-09-28T05:26:50.019Z,100.00
2022-09-28T05:30:52.458Z,100.00
2022-09-28T05:35:17.845Z,100.00
2022-09-28T05:39:21.754Z,100.00
2022-09-28T05:43:23.875Z,100.00
2022-09-28T05:47:27.128Z,100.00
2022-09-28T05:51:29.879Z,100.00
2022-09-28T05:55:33.147Z,100.00
2022-09-28T05:59:36.203Z,99.73
2022-09-28T06:03:38.359Z,98.66
2022-09-28T06:07:40.484Z,98.85
2022-09-28T06:11:42.721Z,98.48
2022-09-28T06:15:53.617Z,98.73
2022-09-28T06:19:56.101Z,99.43
2022-09-28T06:24:01.944Z,100.00
2022-09-28T06:28:06.789Z,98.79
2022-09-28T06:32:08.903Z,98.51
2022-09-28T06:36:13.637Z,100.00
2022-09-28T06:40:15.894Z,99.89
2022-09-28T06:44:18.173Z,97.30
2022-09-28T06:48:53.117Z,94.19
2022-09-28T06:53:30.226Z,92.56
2022-09-28T06:58:04.790Z,92.38
2022-09-28T07:02:10.700Z,90.57
2022-09-28T07:06:33.175Z,90.31
2022-09-28T07:10:58.263Z,91.91
2022-09-28T07:15:16.614Z,92.88
2022-09-28T07:19:19.135Z,92.10
2022-09-28T07:23:21.187Z,92.78
2022-09-28T07:27:55.423Z,93.50
2022-09-28T07:32:08.940Z,89.75
2022-09-28T07:36:35.051Z,89.92
2022-09-28T07:40:55.981Z,89.33
2022-09-28T07:44:58.499Z,86.30
2022-09-28T07:49:00.885Z,82.56
2022-09-28T07:53:09.228Z,83.23
2022-09-28T07:57:28.835Z,78.25
2022-09-28T08:01:49.388Z,79.54
2022-09-28T08:05:57.092Z,80.62
2022-09-28T08:09:59.283Z,82.04
2022-09-28T08:14:21.445Z,83.34
2022-09-28T08:18:55.785Z,83.90
2022-09-28T08:23:04.130Z,83.86
2022-09-28T08:27:07.681Z,82.19
2022-09-28T08:31:10.784Z,82.13
2022-09-28T08:35:46.676Z,80.70
2022-09-28T08:40:13.536Z,82.33
2022-09-28T08:49:24.220Z,80.58
2022-09-28T08:53:45.877Z,80.16
2022-09-28T08:58:17.315Z,79.28
2022-09-28T09:02:25.386Z,78.70
2022-09-28T09:07:11.075Z,77.38
2022-09-28T09:11:23.278Z,77.67
2022-09-28T09:15:43.631Z,75.91
2022-09-28T09:20:01.240Z,73.39
2022-09-28T09:24:31.186Z,76.30
2022-09-28T09:28:35.213Z,79.47
2022-09-28T09:33:00.646Z,75.13
2022-09-28T09:37:13.455Z,73.82
2022-09-28T09:42:28.121Z,74.69
2022-09-28T09:46:58.761Z,75.00
2022-09-28T09:51:28.659Z,75.31
2022-09-28T09:55:44.357Z,74.08
2022-09-28T10:00:01.815Z,74.35
2022-09-28T10:04:22.229Z,74.17
2022-09-28T10:08:26.902Z,74.65
2022-09-28T10:12:30.977Z,74.04
2022-09-28T10:16:35.787Z,71.46
2022-09-28T10:20:44.882Z,71.16
2022-09-28T10:24:57.370Z,67.45
2022-09-28T10:29:05.388Z,67.10
2022-09-28T10:33:28.944Z,65.71
2022-09-28T10:37:31.821Z,66.51
2022-09-28T10:41:51.685Z,66.07
2022-09-28T10:46:03.423Z,67.12
2022-09-28T10:50:21.025Z,66.40
2022-09-28T10:54:26.690Z,67.93
2022-09-28T10:58:40.401Z,68.43
2022-09-28T11:02:45.812Z,68.68
2022-09-28T11:11:13.055Z,64.68
2022-09-28T11:15:28.828Z,62.77
2022-09-28T11:19:31.734Z,62.13
2022-09-28T11:23:33.855Z,63.14
2022-09-28T11:27:52.073Z,64.17
2022-09-28T11:32:04.126Z,67.24
2022-09-28T11:36:12.929Z,68.96
2022-09-28T11:40:43.445Z,70.68
2022-09-28T11:44:47.873Z,72.19
2022-09-28T11:49:20.892Z,73.09
2022-09-28T11:53:37.420Z,71.47
2022-09-28T11:57:43.892Z,65.15
2022-09-28T12:01:59.919Z,66.59
2022-09-28T12:06:16.051Z,66.20
2022-09-28T12:10:39.401Z,65.56
2022-09-28T12:14:45.654Z,64.09
2022-09-28T12:19:05.418Z,63.06
2022-09-28T12:23:14.581Z,62.72
2022-09-28T12:27:23.723Z,61.64
2022-09-28T12:31:34.296Z,62.82
2022-09-28T12:35:51.010Z,62.47
2022-09-28T12:40:30.121Z,60.84
2022-09-28T12:45:02.123Z,60.93
2022-09-28T12:54:04.541Z,57.92
2022-09-28T12:58:24.569Z,57.94
2022-09-28T13:03:14.961Z,60.54
2022-09-28T13:07:28.844Z,61.16
2022-09-28T13:11:31.923Z,63.77
2022-09-28T13:15:43.320Z,64.10
2022-09-28T13:19:57.729Z,64.57
2022-09-28T13:24:20.780Z,65.48
2022-09-28T13:28:28.239Z,64.84
2022-09-28T13:32:33.264Z,66.54
2022-09-28T13:36:37.058Z,67.34
2022-09-28T13:41:03.880Z,65.89
2022-09-28T13:45:21.070Z,64.87
2022-09-28T13:49:38.267Z,62.87
2022-09-28T13:53:57.138Z,58.86
2022-09-28T13:58:40.825Z,59.39
2022-09-28T14:02:54.041Z,58.50
2022-09-28T14:07:10.076Z,59.82
2022-09-28T14:11:37.696Z,59.14
2022-09-28T14:15:43.893Z,59.67
2022-09-28T14:20:01.000Z,58.93
2022-09-28T14:24:12.156Z,58.60
2022-09-28T14:28:24.366Z,59.32
2022-09-28T14:32:37.010Z,60.04
2022-09-28T14:37:06.477Z,58.81
2022-09-28T14:41:31.217Z,59.01
2022-09-28T14:45:36.488Z,59.08
2022-09-28T14:49:47.619Z,60.43
2022-09-28T14:53:51.079Z,62.13
2022-09-28T14:57:57.172Z,63.56
2022-09-28T15:02:06.160Z,64.17
2022-09-28T15:06:16.087Z,63.79
2022-09-28T15:10:31.259Z,63.38
2022-09-28T15:14:42.054Z,64.45
2022-09-28T15:19:05.476Z,64.03
2022-09-28T15:23:44.171Z,63.06
2022-09-28T15:27:52.561Z,61.79
2022-09-28T15:31:54.877Z,61.56
2022-09-28T15:36:05.618Z,61.61
2022-09-28T15:40:15.385Z,61.17
2022-09-28T15:44:29.024Z,61.88
2022-09-28T15:48:51.914Z,63.17
2022-09-28T15:53:00.652Z,64.74
2022-09-28T15:57:03.333Z,63.37
2022-09-28T16:01:47.488Z,61.93
2022-09-28T16:06:11.693Z,62.18
2022-09-28T16:10:13.686Z,60.99
2022-09-28T16:14:24.500Z,61.77
2022-09-28T16:18:30.775Z,62.58
2022-09-28T16:22:32.889Z,63.27
2022-09-28T16:26:38.888Z,64.01
2022-09-28T16:31:00.096Z,64.55
2022-09-28T16:35:18.701Z,66.52
2022-09-28T16:39:21.772Z,67.52
2022-09-28T16:43:36.535Z,67.82
2022-09-28T16:47:39.474Z,68.69
2022-09-28T16:51:41.469Z,70.45
2022-09-28T16:55:44.411Z,71.02
2022-09-28T16:59:46.353Z,72.27
2022-09-28T17:03:50.079Z,72.34
2022-09-28T17:08:04.008Z,72.64
2022-09-28T17:12:18.092Z,73.41
2022-09-28T17:16:32.584Z,74.40
2022-09-28T17:20:48.961Z,75.53
2022-09-28T17:24:50.937Z,76.56
2022-09-28T17:28:53.215Z,77.33
2022-09-28T17:32:55.321Z,78.36
2022-09-28T17:36:57.371Z,78.81
2022-09-28T17:40:59.486Z,78.96
2022-09-28T17:45:01.528Z,78.90
2022-09-28T17:49:05.367Z,79.88
2022-09-28T17:53:07.454Z,80.40
2022-09-28T17:57:10.201Z,81.04
2022-09-28T18:01:12.327Z,81.05
2022-09-28T18:05:14.843Z,81.02
2022-09-28T18:09:24.658Z,81.11
2022-09-28T18:13:26.667Z,81.11
2022-09-28T18:17:28.668Z,80.81
2022-09-28T18:21:33.874Z,80.39
2022-09-28T18:25:39.613Z,80.40
2022-09-28T18:29:41.614Z,80.26
2022-09-28T18:33:43.631Z,80.12
2022-09-28T18:37:45.626Z,80.45
2022-09-28T18:41:47.768Z,80.98
2022-09-28T18:45:49.773Z,81.80
2022-09-28T18:49:51.802Z,81.88
2022-09-28T18:53:53.975Z,82.80
2022-09-28T18:57:56.032Z,83.32
2022-09-28T19:02:01.289Z,84.30
2022-09-28T19:06:03.786Z,84.50
2022-09-28T19:10:06.419Z,85.01
2022-09-28T19:14:11.013Z,86.43
2022-09-28T19:18:12.998Z,86.44
2022-09-28T19:22:14.984Z,87.24
2022-09-28T19:26:22.907Z,88.93
2022-09-28T19:30:24.930Z,89.04
2022-09-28T19:34:29.956Z,89.78
2022-09-28T19:38:34.321Z,90.60
2022-09-28T19:42:36.346Z,91.08
2022-09-28T19:46:39.967Z,91.77
2022-09-28T19:50:42.017Z,91.52
2022-09-28T19:54:54.345Z,92.26
2022-09-28T19:58:57.016Z,91.96
2022-09-28T20:02:59.065Z,91.81
2022-09-28T20:07:01.733Z,91.49
2022-09-28T20:11:03.914Z,92.12
2022-09-28T20:15:07.838Z,91.78
2022-09-28T20:19:10.048Z,92.06
2022-09-28T20:23:12.118Z,89.22
2022-09-28T20:27:14.114Z,89.62
2022-09-28T20:31:19.911Z,91.25
2022-09-28T20:35:32.224Z,92.64
2022-09-28T20:39:35.916Z,93.35
2022-09-28T20:43:38.539Z,93.47
2022-09-28T20:47:40.557Z,94.06
2022-09-28T20:51:42.580Z,94.58
2022-09-28T20:55:44.559Z,94.89
2022-09-28T20:59:52.171Z,95.39
2022-09-28T21:03:59.097Z,95.88
2022-09-28T21:08:01.415Z,95.68
2022-09-28T21:12:04.986Z,95.69
2022-09-28T21:16:07.191Z,95.63
2022-09-28T21:20:09.458Z,95.32
2022-09-28T21:24:11.640Z,95.83
2022-09-28T21:28:17.134Z,95.52
2022-09-28T21:32:19.160Z,94.76
2022-09-28T21:36:21.189Z,95.87
2022-09-28T21:40:23.305Z,95.90
2022-09-28T21:44:25.418Z,95.79
2022-09-28T21:48:28.511Z,96.19
2022-09-28T21:52:30.504Z,96.17
2022-09-28T21:56:32.637Z,96.17
2022-09-28T22:00:34.663Z,95.68
2022-09-28T22:04:36.675Z,95.93
2022-09-28T22:08:39.383Z,94.84
2022-09-28T22:12:41.497Z,95.07
2022-09-28T22:16:43.524Z,96.72
2022-09-28T22:20:45.532Z,97.49
2022-09-28T22:24:47.521Z,96.58
2022-09-28T22:28:55.054Z,94.86
2022-09-28T22:32:57.053Z,95.86
2022-09-28T22:36:59.391Z,95.77
2022-09-28T22:41:03.685Z,96.19
2022-09-28T22:45:06.416Z,96.08
2022-09-28T22:49:10.306Z,96.75
2022-09-28T22:53:14.029Z,97.35
2022-09-28T22:57:16.019Z,97.52
2022-09-28T23:01:21.175Z,98.54
2022-09-28T23:05:23.573Z,99.54
2022-09-28T23:09:25.639Z,100.00
2022-09-28T23:13:28.764Z,100.00
2022-09-28T23:17:30.756Z,99.77
2022-09-28T23:21:32.786Z,99.81
2022-09-28T23:25:34.800Z,99.88
2022-09-28T23:29:38.866Z,100.00
2022-09-28T23:33:41.093Z,100.00
2022-09-28T23:37:43.100Z,99.33
2022-09-28T23:41:45.091Z,99.12
2022-09-28T23:45:47.284Z,100.00
2022-09-28T23:49:49.312Z,99.40
2022-09-28T23:53:51.351Z,99.55
2022-09-28T23:57:55.547Z,99.99
